sensor_id;sensor_type;location;lat;lon;timestamp;pressure;altitude;pressure_sealevel;temperature;humidity
13869;BME280;7004;48.206;16.402;2024-01-30T00:01:46;101646.50;;;2.16;90.58
13869;BME280;7004;48.206;16.402;2024-01-30T00:04:13;101647.41;;;2.26;89.34
13869;BME280;7004;48.206;16.402;2024-01-30T00:06:39;101641.28;;;2.03;91.02
13869;BME280;7004;48.206;16.402;2024-01-30T00:09:06;101638.66;;;2.12;90.56
13869;BME280;7004;48.206;16.402;2024-01-30T00:11:33;101637.81;;;2.14;90.97
13869;BME280;7004;48.206;16.402;2024-01-30T00:13:59;101629.91;;;1.88;91.99
13869;BME280;7004;48.206;16.402;2024-01-30T00:16:30;101641.19;;;1.75;92.69
13869;BME280;7004;48.206;16.402;2024-01-30T00:18:57;101643.78;;;1.81;93.21
13869;BME280;7004;48.206;16.402;2024-01-30T00:21:23;101629.09;;;2.03;92.28
13869;BME280;7004;48.206;16.402;2024-01-30T00:23:49;101639.53;;;2.06;91.31
13869;BME280;7004;48.206;16.402;2024-01-30T00:26:15;101628.22;;;1.95;91.98
13869;BME280;7004;48.206;16.402;2024-01-30T00:28:42;101629.97;;;2.04;90.90
13869;BME280;7004;48.206;16.402;2024-01-30T00:31:08;101630.81;;;1.98;91.88
13869;BME280;7004;48.206;16.402;2024-01-30T00:33:39;101636.88;;;1.91;91.61
13869;BME280;7004;48.206;16.402;2024-01-30T00:36:07;101633.44;;;2.06;91.55
13869;BME280;7004;48.206;16.402;2024-01-30T00:38:34;101640.38;;;2.02;91.56
13869;BME280;7004;48.206;16.402;2024-01-30T00:41:00;101642.13;;;2.02;91.63
13869;BME280;7004;48.206;16.402;2024-01-30T00:43:28;101646.50;;;2.13;91.63
13869;BME280;7004;48.206;16.402;2024-01-30T00:45:55;101645.63;;;2.10;91.52
13869;BME280;7004;48.206;16.402;2024-01-30T00:48:22;101656.88;;;1.92;91.17
13869;BME280;7004;48.206;16.402;2024-01-30T00:50:48;101646.50;;;2.09;91.60
13869;BME280;7004;48.206;16.402;2024-01-30T00:53:14;101648.19;;;1.91;91.96
13869;BME280;7004;48.206;16.402;2024-01-30T00:55:40;101636.03;;;2.00;92.30
13869;BME280;7004;48.206;16.402;2024-01-30T00:58:06;101636.00;;;1.87;92.58
13869;BME280;7004;48.206;16.402;2024-01-30T01:00:32;101637.75;;;1.91;92.34
13869;BME280;7004;48.206;16.402;2024-01-30T01:02:59;101633.41;;;1.90;91.97
13869;BME280;7004;48.206;16.402;2024-01-30T01:05:25;101629.06;;;1.97;92.40
13869;BME280;7004;48.206;16.402;2024-01-30T01:07:51;101629.94;;;1.93;92.82
13869;BME280;7004;48.206;16.402;2024-01-30T01:10:17;101629.91;;;1.91;92.16
13869;BME280;7004;48.206;16.402;2024-01-30T01:12:45;101623.84;;;1.92;92.69
13869;BME280;7004;48.206;16.402;2024-01-30T01:15:12;101617.75;;;1.90;92.35
13869;BME280;7004;48.206;16.402;2024-01-30T01:17:39;101620.31;;;1.81;92.88
13869;BME280;7004;48.206;16.402;2024-01-30T01:20:07;101621.22;;;1.80;93.21
13869;BME280;7004;48.206;16.402;2024-01-30T01:22:34;101609.03;;;1.74;93.60
13869;BME280;7004;48.206;16.402;2024-01-30T01:25:01;101610.75;;;1.72;93.39
13869;BME280;7004;48.206;16.402;2024-01-30T01:27:27;101616.00;;;1.94;92.29
13869;BME280;7004;48.206;16.402;2024-01-30T01:29:53;101612.56;;;2.12;91.31
13869;BME280;7004;48.206;16.402;2024-01-30T01:32:20;101616.84;;;1.76;92.43
13869;BME280;7004;48.206;16.402;2024-01-30T01:34:46;101612.56;;;2.03;92.00
13869;BME280;7004;48.206;16.402;2024-01-30T01:37:12;101608.22;;;2.02;92.05
13869;BME280;7004;48.206;16.402;2024-01-30T01:39:38;101604.72;;;1.93;92.01
13869;BME280;7004;48.206;16.402;2024-01-30T01:42:04;101604.72;;;2.00;91.23
13869;BME280;7004;48.206;16.402;2024-01-30T01:44:31;101605.53;;;1.72;92.73
13869;BME280;7004;48.206;16.402;2024-01-30T01:46:58;101603.00;;;1.92;92.25
13869;BME280;7004;48.206;16.402;2024-01-30T01:49:25;101608.16;;;1.77;92.46
13869;BME280;7004;48.206;16.402;2024-01-30T01:51:55;101603.84;;;1.82;92.46
13869;BME280;7004;48.206;16.402;2024-01-30T01:54:27;101597.72;;;1.69;93.15
13869;BME280;7004;48.206;16.402;2024-01-30T01:56:55;101598.63;;;1.82;92.31
13869;BME280;7004;48.206;16.402;2024-01-30T01:59:22;101597.75;;;1.85;93.15
13869;BME280;7004;48.206;16.402;2024-01-30T02:01:49;101594.25;;;1.69;92.63
13869;BME280;7004;48.206;16.402;2024-01-30T02:04:16;101592.47;;;1.71;92.32
13869;BME280;7004;48.206;16.402;2024-01-30T02:06:43;101596.84;;;1.75;93.00
13869;BME280;7004;48.206;16.402;2024-01-30T02:09:10;101605.50;;;1.62;93.26
13869;BME280;7004;48.206;16.402;2024-01-30T02:11:36;101597.75;;;1.83;93.05
13869;BME280;7004;48.206;16.402;2024-01-30T02:14:05;101602.03;;;1.61;92.63
13869;BME280;7004;48.206;16.402;2024-01-30T02:16:32;101592.53;;;1.77;92.68
13869;BME280;7004;48.206;16.402;2024-01-30T02:18:58;101594.28;;;1.86;92.42
13869;BME280;7004;48.206;16.402;2024-01-30T02:21:24;101588.16;;;1.67;92.77
13869;BME280;7004;48.206;16.402;2024-01-30T02:23:51;101587.31;;;1.82;92.57
13869;BME280;7004;48.206;16.402;2024-01-30T02:26:18;101573.44;;;1.84;92.23
13869;BME280;7004;48.206;16.402;2024-01-30T02:28:44;101582.03;;;1.63;92.79
13869;BME280;7004;48.206;16.402;2024-01-30T02:31:10;101577.75;;;1.74;92.37
13869;BME280;7004;48.206;16.402;2024-01-30T02:33:36;101578.63;;;1.86;91.61
13869;BME280;7004;48.206;16.402;2024-01-30T02:36:02;101585.53;;;1.73;92.83
13869;BME280;7004;48.206;16.402;2024-01-30T02:38:31;101589.81;;;1.43;93.52
13869;BME280;7004;48.206;16.402;2024-01-30T02:40:58;101586.38;;;1.66;93.40
13869;BME280;7004;48.206;16.402;2024-01-30T02:43:24;101581.97;;;1.42;93.30
13869;BME280;7004;48.206;16.402;2024-01-30T02:45:50;101578.56;;;1.57;93.28
13869;BME280;7004;48.206;16.402;2024-01-30T02:48:16;101586.31;;;1.44;94.59
13869;BME280;7004;48.206;16.402;2024-01-30T02:50:42;101590.69;;;1.48;94.58
13869;BME280;7004;48.206;16.402;2024-01-30T02:53:09;101584.69;;;1.69;93.38
13869;BME280;7004;48.206;16.402;2024-01-30T02:55:35;101601.97;;;1.43;94.19
13869;BME280;7004;48.206;16.402;2024-01-30T02:58:01;101586.38;;;1.60;93.20
13869;BME280;7004;48.206;16.402;2024-01-30T03:00:28;101595.00;;;1.42;93.98
13869;BME280;7004;48.206;16.402;2024-01-30T03:02:54;101594.13;;;1.41;93.97
13869;BME280;7004;48.206;16.402;2024-01-30T03:05:20;101579.34;;;1.39;94.38
13869;BME280;7004;48.206;16.402;2024-01-30T03:07:47;101582.84;;;1.47;93.80
13869;BME280;7004;48.206;16.402;2024-01-30T03:10:13;101575.81;;;1.24;94.51
13869;BME280;7004;48.206;16.402;2024-01-30T03:12:40;101572.28;;;1.07;96.01
13869;BME280;7004;48.206;16.402;2024-01-30T03:15:07;101573.25;;;1.27;95.84
13869;BME280;7004;48.206;16.402;2024-01-30T03:17:34;101576.66;;;1.22;96.02
13869;BME280;7004;48.206;16.402;2024-01-30T03:20:07;101573.28;;;1.44;94.88
13869;BME280;7004;48.206;16.402;2024-01-30T03:22:36;101568.00;;;1.23;94.97
13869;BME280;7004;48.206;16.402;2024-01-30T03:25:03;101564.56;;;1.30;95.73
13869;BME280;7004;48.206;16.402;2024-01-30T03:27:34;101574.91;;;1.19;95.19
13869;BME280;7004;48.206;16.402;2024-01-30T03:30:00;101573.09;;;1.00;95.92
13869;BME280;7004;48.206;16.402;2024-01-30T03:32:26;101568.75;;;0.97;96.22
13869;BME280;7004;48.206;16.402;2024-01-30T03:34:54;101572.22;;;0.98;96.47
13869;BME280;7004;48.206;16.402;2024-01-30T03:37:23;101567.06;;;1.07;96.42
13869;BME280;7004;48.206;16.402;2024-01-30T03:39:50;101572.34;;;1.21;95.75
13869;BME280;7004;48.206;16.402;2024-01-30T03:42:16;101575.63;;;0.84;97.76
13869;BME280;7004;48.206;16.402;2024-01-30T03:44:43;101565.28;;;0.97;96.48
13869;BME280;7004;48.206;16.402;2024-01-30T03:47:09;101563.50;;;0.93;97.15
13869;BME280;7004;48.206;16.402;2024-01-30T03:49:35;101569.56;;;0.90;97.55
13869;BME280;7004;48.206;16.402;2024-01-30T03:52:02;101569.53;;;0.85;97.98
13869;BME280;7004;48.206;16.402;2024-01-30T03:54:28;101566.06;;;0.85;97.44
13869;BME280;7004;48.206;16.402;2024-01-30T03:56:54;101569.63;;;0.99;97.94
13869;BME280;7004;48.206;16.402;2024-01-30T03:59:20;101569.53;;;0.84;97.66
13869;BME280;7004;48.206;16.402;2024-01-30T04:01:51;101569.59;;;0.95;97.75
13869;BME280;7004;48.206;16.402;2024-01-30T04:04:18;101573.84;;;0.80;98.12
13869;BME280;7004;48.206;16.402;2024-01-30T04:06:46;101579.97;;;0.87;98.26
13869;BME280;7004;48.206;16.402;2024-01-30T04:09:15;101571.34;;;0.97;97.23
13869;BME280;7004;48.206;16.402;2024-01-30T04:11:42;101572.22;;;0.98;96.83
13869;BME280;7004;48.206;16.402;2024-01-30T04:14:09;101571.38;;;0.99;96.92
13869;BME280;7004;48.206;16.402;2024-01-30T04:16:35;101569.47;;;0.70;97.09
13869;BME280;7004;48.206;16.402;2024-01-30T04:19:04;101574.72;;;0.79;98.02
13869;BME280;7004;48.206;16.402;2024-01-30T04:21:30;101570.44;;;0.91;96.92
13869;BME280;7004;48.206;16.402;2024-01-30T04:23:57;101576.50;;;0.88;97.72
13869;BME280;7004;48.206;16.402;2024-01-30T04:26:23;101566.94;;;0.81;98.06
13869;BME280;7004;48.206;16.402;2024-01-30T04:28:49;101563.34;;;0.65;98.21
13869;BME280;7004;48.206;16.402;2024-01-30T04:31:15;101565.19;;;0.81;97.84
13869;BME280;7004;48.206;16.402;2024-01-30T04:33:41;101565.97;;;0.65;98.41
13869;BME280;7004;48.206;16.402;2024-01-30T04:36:09;101569.53;;;0.84;98.69
13869;BME280;7004;48.206;16.402;2024-01-30T04:38:38;101569.44;;;0.69;98.45
13869;BME280;7004;48.206;16.402;2024-01-30T04:41:05;101571.31;;;0.90;97.83
13869;BME280;7004;48.206;16.402;2024-01-30T04:43:31;101575.63;;;0.84;98.18
13869;BME280;7004;48.206;16.402;2024-01-30T04:45:57;101564.25;;;0.69;98.23
13869;BME280;7004;48.206;16.402;2024-01-30T04:48:23;101569.41;;;0.62;97.99
13869;BME280;7004;48.206;16.402;2024-01-30T04:50:49;101566.00;;;0.73;98.82
13869;BME280;7004;48.206;16.402;2024-01-30T04:53:15;101568.72;;;0.93;97.98
13869;BME280;7004;48.206;16.402;2024-01-30T04:55:42;101566.00;;;0.77;97.78
13869;BME280;7004;48.206;16.402;2024-01-30T04:58:08;101573.03;;;0.87;98.51
13869;BME280;7004;48.206;16.402;2024-01-30T05:00:34;101578.06;;;0.60;98.83
13869;BME280;7004;48.206;16.402;2024-01-30T05:03:01;101569.25;;;0.44;100.00
13869;BME280;7004;48.206;16.402;2024-01-30T05:05:27;101570.22;;;0.52;100.00
13869;BME280;7004;48.206;16.402;2024-01-30T05:07:53;101568.44;;;0.48;100.00
13869;BME280;7004;48.206;16.402;2024-01-30T05:10:20;101570.13;;;0.46;100.00
13869;BME280;7004;48.206;16.402;2024-01-30T05:12:46;101567.59;;;0.54;100.00
13869;BME280;7004;48.206;16.402;2024-01-30T05:15:12;101564.03;;;0.44;100.00
13869;BME280;7004;48.206;16.402;2024-01-30T05:17:38;101571.09;;;0.59;100.00
13869;BME280;7004;48.206;16.402;2024-01-30T05:20:04;101576.38;;;0.65;100.00
13869;BME280;7004;48.206;16.402;2024-01-30T05:22:31;101578.06;;;0.60;100.00
13869;BME280;7004;48.206;16.402;2024-01-30T05:24:57;101577.13;;;0.53;100.00
13869;BME280;7004;48.206;16.402;2024-01-30T05:27:23;101583.31;;;0.68;99.56
13869;BME280;7004;48.206;16.402;2024-01-30T05:29:49;101582.47;;;0.69;99.93
13869;BME280;7004;48.206;16.402;2024-01-30T05:32:15;101585.13;;;0.79;99.76
13869;BME280;7004;48.206;16.402;2024-01-30T05:34:41;101581.53;;;0.60;98.97
13869;BME280;7004;48.206;16.402;2024-01-30T05:37:07;101581.59;;;0.68;98.72
13869;BME280;7004;48.206;16.402;2024-01-30T05:39:34;101581.47;;;0.54;98.55
13869;BME280;7004;48.206;16.402;2024-01-30T05:42:01;101585.06;;;0.69;99.01
13869;BME280;7004;48.206;16.402;2024-01-30T05:44:27;101579.75;;;0.53;98.99
13869;BME280;7004;48.206;16.402;2024-01-30T05:46:53;101578.97;;;0.65;98.75
13869;BME280;7004;48.206;16.402;2024-01-30T05:49:20;101584.94;;;0.50;98.62
13869;BME280;7004;48.206;16.402;2024-01-30T05:51:45;101578.09;;;0.63;98.22
13869;BME280;7004;48.206;16.402;2024-01-30T05:54:12;101580.69;;;0.64;97.89
13869;BME280;7004;48.206;16.402;2024-01-30T05:56:38;101581.47;;;0.54;98.46
13869;BME280;7004;48.206;16.402;2024-01-30T05:59:04;101582.41;;;0.64;97.80
13869;BME280;7004;48.206;16.402;2024-01-30T06:01:30;101582.31;;;0.47;98.45
13869;BME280;7004;48.206;16.402;2024-01-30T06:03:56;101590.81;;;0.26;98.56
13869;BME280;7004;48.206;16.402;2024-01-30T06:06:22;101586.56;;;0.39;98.76
13869;BME280;7004;48.206;16.402;2024-01-30T06:08:48;101584.84;;;0.41;98.67
13869;BME280;7004;48.206;16.402;2024-01-30T06:11:14;101590.91;;;0.37;98.81
13869;BME280;7004;48.206;16.402;2024-01-30T06:13:41;101592.56;;;0.29;99.23
13869;BME280;7004;48.206;16.402;2024-01-30T06:16:10;101588.13;;;0.17;99.66
13869;BME280;7004;48.206;16.402;2024-01-30T06:18:37;101592.59;;;0.35;98.91
13869;BME280;7004;48.206;16.402;2024-01-30T06:21:05;101600.41;;;0.35;98.66
13869;BME280;7004;48.206;16.402;2024-01-30T06:23:31;101597.81;;;0.35;98.59
13869;BME280;7004;48.206;16.402;2024-01-30T06:25:57;101603.06;;;0.44;98.03
13869;BME280;7004;48.206;16.402;2024-01-30T06:28:23;101604.84;;;0.45;97.88
13869;BME280;7004;48.206;16.402;2024-01-30T06:30:49;101603.91;;;0.38;98.36
13869;BME280;7004;48.206;16.402;2024-01-30T06:33:16;101604.84;;;0.45;98.59
13869;BME280;7004;48.206;16.402;2024-01-30T06:35:42;101606.50;;;0.37;98.64
13869;BME280;7004;48.206;16.402;2024-01-30T06:38:08;101604.81;;;0.43;98.29
13869;BME280;7004;48.206;16.402;2024-01-30T06:40:35;101612.66;;;0.45;97.88
13869;BME280;7004;48.206;16.402;2024-01-30T06:43:01;101608.28;;;0.42;98.73
13869;BME280;7004;48.206;16.402;2024-01-30T06:45:27;101601.44;;;0.52;98.16
13869;BME280;7004;48.206;16.402;2024-01-30T06:47:53;101605.75;;;0.52;98.15
13869;BME280;7004;48.206;16.402;2024-01-30T06:50:19;101604.06;;;0.55;97.48
13869;BME280;7004;48.206;16.402;2024-01-30T06:52:46;101610.13;;;0.56;97.66
13869;BME280;7004;48.206;16.402;2024-01-30T06:55:12;101607.56;;;0.60;97.40
13869;BME280;7004;48.206;16.402;2024-01-30T06:57:38;101611.91;;;0.63;97.35
13869;BME280;7004;48.206;16.402;2024-01-30T07:00:05;101616.25;;;0.62;97.41
13869;BME280;7004;48.206;16.402;2024-01-30T07:02:31;101617.16;;;0.68;96.84
13869;BME280;7004;48.206;16.402;2024-01-30T07:04:57;101628.44;;;0.70;97.33
13869;BME280;7004;48.206;16.402;2024-01-30T07:07:23;101615.47;;;0.74;97.12
13869;BME280;7004;48.206;16.402;2024-01-30T07:09:49;101620.69;;;0.80;96.35
13869;BME280;7004;48.206;16.402;2024-01-30T07:12:18;101620.84;;;1.00;96.49
13869;BME280;7004;48.206;16.402;2024-01-30T07:14:44;101623.34;;;0.88;96.34
13869;BME280;7004;48.206;16.402;2024-01-30T07:17:10;101629.38;;;0.79;96.82
13869;BME280;7004;48.206;16.402;2024-01-30T07:19:36;101631.19;;;0.90;96.67
13869;BME280;7004;48.206;16.402;2024-01-30T07:22:02;101628.56;;;0.83;96.31
13869;BME280;7004;48.206;16.402;2024-01-30T07:24:28;101633.84;;;1.00;95.95
13869;BME280;7004;48.206;16.402;2024-01-30T07:26:54;101635.66;;;1.07;95.45
13869;BME280;7004;48.206;16.402;2024-01-30T07:29:20;101643.53;;;1.20;95.54
13869;BME280;7004;48.206;16.402;2024-01-30T07:31:48;101644.34;;;1.11;94.81
13869;BME280;7004;48.206;16.402;2024-01-30T07:34:14;101644.47;;;1.31;95.54
13869;BME280;7004;48.206;16.402;2024-01-30T07:36:40;101640.94;;;1.20;94.43
13869;BME280;7004;48.206;16.402;2024-01-30T07:39:06;101641.91;;;1.45;93.71
13869;BME280;7004;48.206;16.402;2024-01-30T07:41:33;101641.97;;;1.48;94.08
13869;BME280;7004;48.206;16.402;2024-01-30T07:43:59;101640.22;;;1.55;94.29
13869;BME280;7004;48.206;16.402;2024-01-30T07:46:25;101637.63;;;1.51;93.73
13869;BME280;7004;48.206;16.402;2024-01-30T07:48:51;101635.94;;;1.64;94.35
13869;BME280;7004;48.206;16.402;2024-01-30T07:51:17;101635.09;;;1.78;93.05
13869;BME280;7004;48.206;16.402;2024-01-30T07:53:43;101636.84;;;1.80;91.63
13869;BME280;7004;48.206;16.402;2024-01-30T07:56:10;101627.25;;;1.70;92.11
13869;BME280;7004;48.206;16.402;2024-01-30T07:58:37;101636.84;;;1.79;92.76
13869;BME280;7004;48.206;16.402;2024-01-30T08:01:03;101630.81;;;1.93;91.69
13869;BME280;7004;48.206;16.402;2024-01-30T08:03:29;101633.50;;;2.43;89.07
13869;BME280;7004;48.206;16.402;2024-01-30T08:05:56;101635.22;;;2.68;87.07
13869;BME280;7004;48.206;16.402;2024-01-30T08:08:22;101632.59;;;2.91;85.15
13869;BME280;7004;48.206;16.402;2024-01-30T08:10:48;101638.59;;;3.28;82.70
13869;BME280;7004;48.206;16.402;2024-01-30T08:13:14;101641.22;;;3.24;81.50
13869;BME280;7004;48.206;16.402;2024-01-30T08:15:41;101650.75;;;3.51;79.82
13869;BME280;7004;48.206;16.402;2024-01-30T08:18:07;101642.09;;;3.35;80.26
13869;BME280;7004;48.206;16.402;2024-01-30T08:20:33;101638.44;;;3.79;78.97
13869;BME280;7004;48.206;16.402;2024-01-30T08:22:59;101637.56;;;3.76;78.87
13869;BME280;7004;48.206;16.402;2024-01-30T08:25:26;101647.19;;;3.74;78.92
13869;BME280;7004;48.206;16.402;2024-01-30T08:27:52;101650.72;;;3.63;78.45
13869;BME280;7004;48.206;16.402;2024-01-30T08:30:19;101649.50;;;4.26;76.98
13869;BME280;7004;48.206;16.402;2024-01-30T08:32:45;101646.09;;;4.11;76.22
13869;BME280;7004;48.206;16.402;2024-01-30T08:35:11;101646.94;;;4.13;75.80
13869;BME280;7004;48.206;16.402;2024-01-30T08:37:39;101640.06;;;4.00;76.28
13869;BME280;7004;48.206;16.402;2024-01-30T08:40:07;101648.72;;;4.08;74.50
13869;BME280;7004;48.206;16.402;2024-01-30T08:42:34;101654.72;;;4.27;74.60
13869;BME280;7004;48.206;16.402;2024-01-30T08:45:00;101653.13;;;3.99;74.56
13869;BME280;7004;48.206;16.402;2024-01-30T08:47:26;101644.69;;;4.83;71.92
13869;BME280;7004;48.206;16.402;2024-01-30T08:49:52;101648.88;;;5.01;71.36
13869;BME280;7004;48.206;16.402;2024-01-30T08:52:18;101642.16;;;4.69;70.91
13869;BME280;7004;48.206;16.402;2024-01-30T08:54:45;101644.06;;;4.52;71.58
13869;BME280;7004;48.206;16.402;2024-01-30T08:57:11;101650.03;;;4.71;70.61
13869;BME280;7004;48.206;16.402;2024-01-30T08:59:38;101644.97;;;4.49;71.44
13869;BME280;7004;48.206;16.402;2024-01-30T09:02:04;101646.47;;;4.76;71.18
13869;BME280;7004;48.206;16.402;2024-01-30T09:04:30;101643.50;;;5.13;69.29
13869;BME280;7004;48.206;16.402;2024-01-30T09:06:57;101638.25;;;5.15;68.15
13869;BME280;7004;48.206;16.402;2024-01-30T09:09:23;101640.31;;;4.84;70.20
13869;BME280;7004;48.206;16.402;2024-01-30T09:11:49;101633.75;;;5.26;69.03
13869;BME280;7004;48.206;16.402;2024-01-30T09:14:15;101636.41;;;4.23;71.23
13869;BME280;7004;48.206;16.402;2024-01-30T09:16:41;101643.22;;;6.09;66.23
13869;BME280;7004;48.206;16.402;2024-01-30T09:19:07;101646.25;;;4.99;68.77
13869;BME280;7004;48.206;16.402;2024-01-30T09:21:33;101645.72;;;5.50;66.73
13869;BME280;7004;48.206;16.402;2024-01-30T09:24:03;101632.50;;;6.24;63.96
13869;BME280;7004;48.206;16.402;2024-01-30T09:26:33;101640.97;;;5.81;65.98
13869;BME280;7004;48.206;16.402;2024-01-30T09:28:59;101643.28;;;6.63;64.12
13869;BME280;7004;48.206;16.402;2024-01-30T09:31:25;101648.53;;;7.14;62.09
13869;BME280;7004;48.206;16.402;2024-01-30T09:33:51;101641.06;;;7.38;60.00
13869;BME280;7004;48.206;16.402;2024-01-30T09:36:20;101649.72;;;7.44;61.18
13869;BME280;7004;48.206;16.402;2024-01-30T09:38:47;101651.06;;;7.19;60.39
13869;BME280;7004;48.206;16.402;2024-01-30T09:41:14;101643.34;;;7.55;59.92
13869;BME280;7004;48.206;16.402;2024-01-30T09:43:42;101640.66;;;7.13;60.49
13869;BME280;7004;48.206;16.402;2024-01-30T09:46:15;101639.66;;;6.72;59.27
13869;BME280;7004;48.206;16.402;2024-01-30T09:48:42;101637.47;;;7.42;59.51
13869;BME280;7004;48.206;16.402;2024-01-30T09:51:09;101636.09;;;7.66;58.68
13869;BME280;7004;48.206;16.402;2024-01-30T09:53:37;101641.25;;;7.27;59.16
13869;BME280;7004;48.206;16.402;2024-01-30T09:56:04;101640.47;;;6.74;58.58
13869;BME280;7004;48.206;16.402;2024-01-30T09:58:31;101638.84;;;6.11;62.22
13869;BME280;7004;48.206;16.402;2024-01-30T10:00:57;101623.28;;;8.66;55.47
13869;BME280;7004;48.206;16.402;2024-01-30T10:03:23;101632.31;;;8.18;55.82
13869;BME280;7004;48.206;16.402;2024-01-30T10:05:52;101624.78;;;9.41;53.62
13869;BME280;7004;48.206;16.402;2024-01-30T10:08:19;101623.66;;;8.52;54.79
13869;BME280;7004;48.206;16.402;2024-01-30T10:10:50;101629.31;;;8.71;55.08
13869;BME280;7004;48.206;16.402;2024-01-30T10:13:16;101628.97;;;7.71;57.97
13869;BME280;7004;48.206;16.402;2024-01-30T10:15:42;101612.94;;;8.58;55.64
13869;BME280;7004;48.206;16.402;2024-01-30T10:18:09;101611.91;;;8.28;55.60
13869;BME280;7004;48.206;16.402;2024-01-30T10:20:36;101627.53;;;7.55;58.72
13869;BME280;7004;48.206;16.402;2024-01-30T10:23:03;101614.13;;;8.46;55.11
13869;BME280;7004;48.206;16.402;2024-01-30T10:25:31;101611.19;;;9.85;51.90
13869;BME280;7004;48.206;16.402;2024-01-30T10:27:58;101615.63;;;8.57;54.10
13869;BME280;7004;48.206;16.402;2024-01-30T10:30:26;101612.47;;;8.77;54.22
13869;BME280;7004;48.206;16.402;2024-01-30T10:32:53;101603.69;;;10.29;51.46
13869;BME280;7004;48.206;16.402;2024-01-30T10:35:20;101599.72;;;9.86;51.99
13869;BME280;7004;48.206;16.402;2024-01-30T10:37:49;101592.22;;;10.00;51.18
13869;BME280;7004;48.206;16.402;2024-01-30T10:40:16;101595.59;;;9.48;51.35
13869;BME280;7004;48.206;16.402;2024-01-30T10:42:44;101591.22;;;9.76;51.52
13869;BME280;7004;48.206;16.402;2024-01-30T10:45:14;101591.72;;;9.88;51.36
13869;BME280;7004;48.206;16.402;2024-01-30T10:47:55;101596.31;;;8.90;53.78
13869;BME280;7004;48.206;16.402;2024-01-30T10:50:25;101581.38;;;9.52;51.67
13869;BME280;7004;48.206;16.402;2024-01-30T10:52:53;101574.22;;;10.91;48.92
13869;BME280;7004;48.206;16.402;2024-01-30T10:55:22;101580.78;;;10.00;49.20
13869;BME280;7004;48.206;16.402;2024-01-30T10:57:49;101578.66;;;10.66;47.17
13869;BME280;7004;48.206;16.402;2024-01-30T11:00:16;101571.47;;;10.16;49.30
13869;BME280;7004;48.206;16.402;2024-01-30T11:02:46;101576.84;;;9.85;49.55
13869;BME280;7004;48.206;16.402;2024-01-30T11:05:13;101568.00;;;10.69;49.21
13869;BME280;7004;48.206;16.402;2024-01-30T11:07:42;101564.19;;;10.76;47.72
13869;BME280;7004;48.206;16.402;2024-01-30T11:10:08;101567.16;;;10.92;47.69
13869;BME280;7004;48.206;16.402;2024-01-30T11:12:40;101565.56;;;9.80;49.23
13869;BME280;7004;48.206;16.402;2024-01-30T11:15:14;101553.00;;;10.43;47.57
13869;BME280;7004;48.206;16.402;2024-01-30T11:20:29;101559.25;;;10.67;47.59
13869;BME280;7004;48.206;16.402;2024-01-30T11:22:59;101553.19;;;10.37;47.29
13869;BME280;7004;48.206;16.402;2024-01-30T11:25:32;101554.00;;;9.54;49.08
13869;BME280;7004;48.206;16.402;2024-01-30T11:27:59;101549.69;;;10.36;47.45
13869;BME280;7004;48.206;16.402;2024-01-30T11:30:31;101548.84;;;10.36;47.48
13869;BME280;7004;48.206;16.402;2024-01-30T11:33:05;101547.72;;;10.68;46.76
13869;BME280;7004;48.206;16.402;2024-01-30T11:35:43;101547.03;;;9.52;49.68
13869;BME280;7004;48.206;16.402;2024-01-30T11:38:12;101544.59;;;9.46;48.16
13869;BME280;7004;48.206;16.402;2024-01-30T11:40:39;101545.94;;;10.68;47.54
13869;BME280;7004;48.206;16.402;2024-01-30T11:43:07;101523.66;;;11.93;47.83
13869;BME280;7004;48.206;16.402;2024-01-30T11:45:34;101527.50;;;11.39;49.25
13869;BME280;7004;48.206;16.402;2024-01-30T11:48:01;101537.56;;;10.56;47.90
13869;BME280;7004;48.206;16.402;2024-01-30T11:50:30;101527.59;;;10.89;46.94
13869;BME280;7004;48.206;16.402;2024-01-30T11:52:57;101528.81;;;11.27;46.46
13869;BME280;7004;48.206;16.402;2024-01-30T11:55:24;101534.69;;;11.35;45.39
13869;BME280;7004;48.206;16.402;2024-01-30T11:57:50;101543.06;;;9.68;47.07
13869;BME280;7004;48.206;16.402;2024-01-30T12:00:18;101534.91;;;9.46;49.02
13869;BME280;7004;48.206;16.402;2024-01-30T12:02:55;101529.63;;;9.46;49.21
13869;BME280;7004;48.206;16.402;2024-01-30T12:05:25;101535.38;;;9.60;48.60
13869;BME280;7004;48.206;16.402;2024-01-30T12:07:51;101533.19;;;8.50;51.26
13869;BME280;7004;48.206;16.402;2024-01-30T12:10:18;101527.78;;;8.56;51.60
13869;BME280;7004;48.206;16.402;2024-01-30T12:12:49;101527.56;;;9.56;50.07
13869;BME280;7004;48.206;16.402;2024-01-30T12:15:17;101523.03;;;9.31;50.55
13869;BME280;7004;48.206;16.402;2024-01-30T12:17:44;101521.38;;;8.98;50.42
13869;BME280;7004;48.206;16.402;2024-01-30T12:20:18;101512.94;;;9.16;50.46
13869;BME280;7004;48.206;16.402;2024-01-30T12:22:49;101513.81;;;8.85;51.25
13869;BME280;7004;48.206;16.402;2024-01-30T12:25:17;101514.59;;;9.48;49.43
13869;BME280;7004;48.206;16.402;2024-01-30T12:27:49;101501.28;;;9.23;50.51
13869;BME280;7004;48.206;16.402;2024-01-30T12:30:18;101504.50;;;9.33;50.35
13869;BME280;7004;48.206;16.402;2024-01-30T12:32:46;101507.34;;;9.27;50.50
13869;BME280;7004;48.206;16.402;2024-01-30T12:35:18;101502.44;;;9.13;50.34
13869;BME280;7004;48.206;16.402;2024-01-30T12:37:46;101504.41;;;9.06;50.37
13869;BME280;7004;48.206;16.402;2024-01-30T12:40:14;101502.00;;;9.28;50.38
13869;BME280;7004;48.206;16.402;2024-01-30T12:42:41;101508.13;;;8.99;49.23
13869;BME280;7004;48.206;16.402;2024-01-30T12:45:13;101501.66;;;8.80;49.69
13869;BME280;7004;48.206;16.402;2024-01-30T12:47:39;101496.63;;;8.70;50.12
13869;BME280;7004;48.206;16.402;2024-01-30T12:50:06;101500.28;;;9.27;47.83
13869;BME280;7004;48.206;16.402;2024-01-30T12:52:32;101503.34;;;8.14;51.14
13869;BME280;7004;48.206;16.402;2024-01-30T12:54:58;101511.03;;;8.57;49.70
13869;BME280;7004;48.206;16.402;2024-01-30T12:57:24;101489.75;;;8.96;48.57
13869;BME280;7004;48.206;16.402;2024-01-30T12:59:50;101497.25;;;8.80;48.98
13869;BME280;7004;48.206;16.402;2024-01-30T13:02:16;101485.19;;;9.60;47.19